sensor_id;sensor_type;location;lat;lon;timestamp;pressure;altitude;pressure_sealevel;temperature;humidity
66547;BME280;53400;50.364;14.874;2024-03-08T00:01:13;99142.47;;;-0.34;90.68
66547;BME280;53400;50.364;14.874;2024-03-08T00:03:45;99146.28;;;-0.36;91.45
66547;BME280;53400;50.364;14.874;2024-03-08T00:06:12;99141.50;;;-0.33;91.57
66547;BME280;53400;50.364;14.874;2024-03-08T00:08:38;99135.44;;;-0.09;91.56
66547;BME280;53400;50.364;14.874;2024-03-08T00:11:04;99138.06;;;-0.01;91.52
66547;BME280;53400;50.364;14.874;2024-03-08T00:13:30;99140.88;;;-0.02;90.34
66547;BME280;53400;50.364;14.874;2024-03-08T00:15:56;99134.59;;;-0.17;89.62
66547;BME280;53400;50.364;14.874;2024-03-08T00:18:23;99134.91;;;-0.29;90.95
66547;BME280;53400;50.364;14.874;2024-03-08T00:20:49;99136.06;;;-0.23;91.98
66547;BME280;53400;50.364;14.874;2024-03-08T00:23:16;99121.25;;;-0.16;91.06
66547;BME280;53400;50.364;14.874;2024-03-08T00:25:42;99122.94;;;-0.15;91.76
66547;BME280;53400;50.364;14.874;2024-03-08T00:28:08;99121.13;;;-0.14;92.44
66547;BME280;53400;50.364;14.874;2024-03-08T00:30:34;99126.06;;;-0.11;91.91
66547;BME280;53400;50.364;14.874;2024-03-08T00:33:00;99116.66;;;0.03;90.61
66547;BME280;53400;50.364;14.874;2024-03-08T00:35:26;99122.75;;;-0.13;90.38
66547;BME280;53400;50.364;14.874;2024-03-08T00:37:52;99117.66;;;-0.23;90.65
66547;BME280;53400;50.364;14.874;2024-03-08T00:40:19;99123.75;;;-0.14;91.14
66547;BME280;53400;50.364;14.874;2024-03-08T00:42:46;99125.22;;;-0.20;90.87
66547;BME280;53400;50.364;14.874;2024-03-08T00:45:12;99121.44;;;-0.17;91.41
66547;BME280;53400;50.364;14.874;2024-03-08T00:47:38;99128.19;;;-0.15;90.93
66547;BME280;53400;50.364;14.874;2024-03-08T00:50:05;99120.44;;;-0.25;91.27
66547;BME280;53400;50.364;14.874;2024-03-08T00:52:31;99125.22;;;0.05;91.30
66547;BME280;53400;50.364;14.874;2024-03-08T00:54:57;99116.00;;;0.09;90.86
66547;BME280;53400;50.364;14.874;2024-03-08T00:57:24;99116.03;;;0.01;90.15
66547;BME280;53400;50.364;14.874;2024-03-08T00:59:50;99121.28;;;0.01;89.47
66547;BME280;53400;50.364;14.874;2024-03-08T01:02:16;99120.28;;;-0.23;89.42
66547;BME280;53400;50.364;14.874;2024-03-08T01:04:44;99106.78;;;-0.36;90.08
66547;BME280;53400;50.364;14.874;2024-03-08T01:07:10;99107.78;;;-0.45;91.21
66547;BME280;53400;50.364;14.874;2024-03-08T01:09:36;99113.66;;;-0.60;91.89
66547;BME280;53400;50.364;14.874;2024-03-08T01:12:02;99114.81;;;-0.54;92.53
66547;BME280;53400;50.364;14.874;2024-03-08T01:14:30;99107.56;;;-0.52;92.45
66547;BME280;53400;50.364;14.874;2024-03-08T01:16:56;99109.72;;;-0.48;92.30
66547;BME280;53400;50.364;14.874;2024-03-08T01:19:22;99100.69;;;-0.45;92.51
66547;BME280;53400;50.364;14.874;2024-03-08T01:21:49;99101.16;;;-0.50;92.94
66547;BME280;53400;50.364;14.874;2024-03-08T01:24:15;99099.50;;;-0.59;93.47
66547;BME280;53400;50.364;14.874;2024-03-08T01:26:41;99105.25;;;-0.55;93.54
66547;BME280;53400;50.364;14.874;2024-03-08T01:29:07;99092.63;;;-0.52;93.51
66547;BME280;53400;50.364;14.874;2024-03-08T01:31:35;99090.50;;;-0.48;92.47
66547;BME280;53400;50.364;14.874;2024-03-08T01:34:02;99089.69;;;-0.49;92.86
66547;BME280;53400;50.364;14.874;2024-03-08T01:36:28;99085.69;;;-0.53;93.07
66547;BME280;53400;50.364;14.874;2024-03-08T01:38:54;99089.47;;;-0.63;93.37
66547;BME280;53400;50.364;14.874;2024-03-08T01:41:20;99090.47;;;-0.56;93.33
66547;BME280;53400;50.364;14.874;2024-03-08T01:43:46;99084.38;;;-0.57;94.00
66547;BME280;53400;50.364;14.874;2024-03-08T01:46:15;99080.44;;;-0.53;93.62
66547;BME280;53400;50.364;14.874;2024-03-08T01:48:43;99077.66;;;-0.51;93.33
66547;BME280;53400;50.364;14.874;2024-03-08T01:51:10;99073.56;;;-0.45;93.37
66547;BME280;53400;50.364;14.874;2024-03-08T01:53:37;99074.38;;;-0.37;93.30
66547;BME280;53400;50.364;14.874;2024-03-08T01:56:06;99076.53;;;-0.24;92.04
66547;BME280;53400;50.364;14.874;2024-03-08T01:58:32;99077.50;;;-0.25;91.51
66547;BME280;53400;50.364;14.874;2024-03-08T02:00:59;99067.97;;;-0.26;91.55
66547;BME280;53400;50.364;14.874;2024-03-08T02:03:25;99069.75;;;-0.18;91.68
66547;BME280;53400;50.364;14.874;2024-03-08T02:05:52;99065.34;;;-0.26;92.19
66547;BME280;53400;50.364;14.874;2024-03-08T02:08:19;99069.44;;;-0.32;91.80
66547;BME280;53400;50.364;14.874;2024-03-08T02:10:48;99067.16;;;-0.27;91.06
66547;BME280;53400;50.364;14.874;2024-03-08T02:13:15;99065.34;;;-0.26;91.38
66547;BME280;53400;50.364;14.874;2024-03-08T02:15:52;99061.53;;;-0.32;91.80
66547;BME280;53400;50.364;14.874;2024-03-08T02:18:19;99062.69;;;-0.34;91.60
66547;BME280;53400;50.364;14.874;2024-03-08T02:20:47;99061.38;;;-0.38;92.74
66547;BME280;53400;50.364;14.874;2024-03-08T02:23:13;99054.81;;;-0.42;92.69
66547;BME280;53400;50.364;14.874;2024-03-08T02:25:39;99056.78;;;-0.44;93.24
66547;BME280;53400;50.364;14.874;2024-03-08T02:28:05;99057.56;;;-0.68;93.82
66547;BME280;53400;50.364;14.874;2024-03-08T02:30:31;99054.47;;;-0.64;93.68
66547;BME280;53400;50.364;14.874;2024-03-08T02:32:57;99053.81;;;-0.58;93.85
66547;BME280;53400;50.364;14.874;2024-03-08T02:35:23;99057.25;;;-0.49;94.02
66547;BME280;53400;50.364;14.874;2024-03-08T02:37:50;99062.06;;;-0.36;93.62
66547;BME280;53400;50.364;14.874;2024-03-08T02:40:16;99062.38;;;-0.48;93.36
66547;BME280;53400;50.364;14.874;2024-03-08T02:42:42;99048.88;;;-0.53;93.20
66547;BME280;53400;50.364;14.874;2024-03-08T02:45:08;99052.00;;;-0.57;93.44
66547;BME280;53400;50.364;14.874;2024-03-08T02:47:36;99051.19;;;-0.58;92.65
66547;BME280;53400;50.364;14.874;2024-03-08T02:50:02;99053.44;;;-0.71;92.34
66547;BME280;53400;50.364;14.874;2024-03-08T02:52:29;99055.25;;;-0.80;93.22
66547;BME280;53400;50.364;14.874;2024-03-08T02:54:57;99042.59;;;-0.76;94.02
66547;BME280;53400;50.364;14.874;2024-03-08T02:57:23;99051.47;;;-0.77;94.50
66547;BME280;53400;50.364;14.874;2024-03-08T02:59:50;99046.72;;;-0.82;95.45
66547;BME280;53400;50.364;14.874;2024-03-08T03:02:16;99054.28;;;-0.46;97.11
66547;BME280;53400;50.364;14.874;2024-03-08T03:04:42;99039.81;;;-0.50;95.54
66547;BME280;53400;50.364;14.874;2024-03-08T03:07:09;99037.84;;;-0.40;94.71
66547;BME280;53400;50.364;14.874;2024-03-08T03:09:34;99046.41;;;-0.46;94.64
66547;BME280;53400;50.364;14.874;2024-03-08T03:12:02;99039.34;;;-0.54;94.32
66547;BME280;53400;50.364;14.874;2024-03-08T03:14:28;99032.25;;;-0.53;94.51
66547;BME280;53400;50.364;14.874;2024-03-08T03:16:54;99038.53;;;-0.54;94.19
66547;BME280;53400;50.364;14.874;2024-03-08T03:19:20;99046.38;;;-0.71;93.00
66547;BME280;53400;50.364;14.874;2024-03-08T03:21:46;99034.31;;;-1.06;93.39
66547;BME280;53400;50.364;14.874;2024-03-08T03:24:12;99033.78;;;-1.18;95.33
66547;BME280;53400;50.364;14.874;2024-03-08T03:26:42;99035.91;;;-1.21;96.20
66547;BME280;53400;50.364;14.874;2024-03-08T03:29:10;99034.94;;;-1.20;97.07
66547;BME280;53400;50.364;14.874;2024-03-08T03:31:39;99041.56;;;-0.92;96.87
66547;BME280;53400;50.364;14.874;2024-03-08T03:34:05;99043.56;;;-0.94;96.19
66547;BME280;53400;50.364;14.874;2024-03-08T03:36:34;99034.66;;;-0.93;96.73
66547;BME280;53400;50.364;14.874;2024-03-08T03:39:01;99043.88;;;-0.88;96.26
66547;BME280;53400;50.364;14.874;2024-03-08T03:41:38;99033.69;;;-0.92;96.71
66547;BME280;53400;50.364;14.874;2024-03-08T03:44:04;99029.91;;;-0.89;96.51
66547;BME280;53400;50.364;14.874;2024-03-08T03:46:33;99023.69;;;-0.88;96.70
66547;BME280;53400;50.364;14.874;2024-03-08T03:48:58;99027.78;;;-0.85;96.51
66547;BME280;53400;50.364;14.874;2024-03-08T03:51:26;99023.69;;;-0.88;96.39
66547;BME280;53400;50.364;14.874;2024-03-08T03:53:52;99027.28;;;-0.89;96.79
66547;BME280;53400;50.364;14.874;2024-03-08T03:56:25;99026.13;;;-0.86;96.80
66547;BME280;53400;50.364;14.874;2024-03-08T03:58:50;99026.16;;;-0.70;96.16
66547;BME280;53400;50.364;14.874;2024-03-08T04:01:17;99027.31;;;-0.81;96.79
66547;BME280;53400;50.364;14.874;2024-03-08T04:03:44;99026.00;;;-0.68;95.25
66547;BME280;53400;50.364;14.874;2024-03-08T04:06:11;99025.81;;;-0.67;94.33
66547;BME280;53400;50.364;14.874;2024-03-08T04:08:37;99030.28;;;-0.67;94.49
66547;BME280;53400;50.364;14.874;2024-03-08T04:11:04;99023.69;;;-0.80;95.46
66547;BME280;53400;50.364;14.874;2024-03-08T04:13:30;99024.50;;;-0.87;96.14
66547;BME280;53400;50.364;14.874;2024-03-08T04:15:56;99021.56;;;-0.84;95.21
66547;BME280;53400;50.364;14.874;2024-03-08T04:18:21;99019.22;;;-0.79;95.91
66547;BME280;53400;50.364;14.874;2024-03-08T04:20:49;99011.66;;;-0.82;95.60
66547;BME280;53400;50.364;14.874;2024-03-08T04:23:15;99017.44;;;-0.87;96.19
66547;BME280;53400;50.364;14.874;2024-03-08T04:25:42;99017.25;;;-0.94;96.24
66547;BME280;53400;50.364;14.874;2024-03-08T04:28:08;99011.97;;;-1.02;97.00
66547;BME280;53400;50.364;14.874;2024-03-08T04:30:37;99008.72;;;-0.96;96.72
66547;BME280;53400;50.364;14.874;2024-03-08T04:33:04;99013.50;;;-0.91;96.84
66547;BME280;53400;50.364;14.874;2024-03-08T04:35:31;99013.34;;;-0.81;96.13
66547;BME280;53400;50.364;14.874;2024-03-08T04:37:58;99021.88;;;-0.71;95.94
66547;BME280;53400;50.364;14.874;2024-03-08T04:40:25;99013.63;;;-0.93;96.48
66547;BME280;53400;50.364;14.874;2024-03-08T04:42:51;99012.97;;;-1.03;97.00
66547;BME280;53400;50.364;14.874;2024-03-08T04:45:17;99006.41;;;-0.99;97.82
66547;BME280;53400;50.364;14.874;2024-03-08T04:47:43;99016.44;;;-0.94;96.87
66547;BME280;53400;50.364;14.874;2024-03-08T04:50:09;99012.81;;;-0.93;97.19
66547;BME280;53400;50.364;14.874;2024-03-08T04:52:37;99007.72;;;-0.95;96.70
66547;BME280;53400;50.364;14.874;2024-03-08T04:55:05;99003.78;;;-0.82;97.49
66547;BME280;53400;50.364;14.874;2024-03-08T04:57:31;99009.19;;;-0.92;96.86
66547;BME280;53400;50.364;14.874;2024-03-08T04:59:58;99008.88;;;-0.89;96.99
66547;BME280;53400;50.364;14.874;2024-03-08T05:02:24;99002.66;;;-0.88;96.82
66547;BME280;53400;50.364;14.874;2024-03-08T05:04:50;98994.56;;;-1.03;97.34
66547;BME280;53400;50.364;14.874;2024-03-08T05:07:16;99003.78;;;-0.99;97.10
66547;BME280;53400;50.364;14.874;2024-03-08T05:09:42;98997.34;;;-1.12;97.47
66547;BME280;53400;50.364;14.874;2024-03-08T05:12:09;98995.03;;;-1.16;97.66
66547;BME280;53400;50.364;14.874;2024-03-08T05:14:35;98993.41;;;-1.08;97.30
66547;BME280;53400;50.364;14.874;2024-03-08T05:17:01;99001.78;;;-1.05;96.72
66547;BME280;53400;50.364;14.874;2024-03-08T05:19:29;99000.28;;;-1.07;96.16
66547;BME280;53400;50.364;14.874;2024-03-08T05:21:55;98997.00;;;-1.18;97.42
66547;BME280;53400;50.364;14.874;2024-03-08T05:24:22;99000.63;;;-1.19;97.19
66547;BME280;53400;50.364;14.874;2024-03-08T05:26:48;99003.72;;;-1.23;97.51
66547;BME280;53400;50.364;14.874;2024-03-08T05:29:15;99002.94;;;-1.07;97.62
66547;BME280;53400;50.364;14.874;2024-03-08T05:31:46;98997.66;;;-1.16;98.16
66547;BME280;53400;50.364;14.874;2024-03-08T05:34:12;99001.59;;;-1.11;98.38
66547;BME280;53400;50.364;14.874;2024-03-08T05:36:40;99002.09;;;-1.08;97.91
66547;BME280;53400;50.364;14.874;2024-03-08T05:39:07;98996.06;;;-0.84;98.04
66547;BME280;53400;50.364;14.874;2024-03-08T05:41:33;99002.47;;;-0.70;97.21
66547;BME280;53400;50.364;14.874;2024-03-08T05:43:59;99002.34;;;-0.68;96.13
66547;BME280;53400;50.364;14.874;2024-03-08T05:46:26;98997.56;;;-0.65;96.11
66547;BME280;53400;50.364;14.874;2024-03-08T05:48:52;99000.84;;;-0.47;95.95
66547;BME280;53400;50.364;14.874;2024-03-08T05:51:20;98998.41;;;-0.48;96.07
66547;BME280;53400;50.364;14.874;2024-03-08T05:53:47;99009.38;;;-0.77;96.46
66547;BME280;53400;50.364;14.874;2024-03-08T05:56:13;99005.09;;;-0.70;97.97
66547;BME280;53400;50.364;14.874;2024-03-08T05:58:39;99006.13;;;-0.38;95.28
66547;BME280;53400;50.364;14.874;2024-03-08T06:01:05;99011.03;;;-0.76;97.66
66547;BME280;53400;50.364;14.874;2024-03-08T06:03:35;99010.72;;;-0.40;97.69
66547;BME280;53400;50.364;14.874;2024-03-08T06:06:01;99011.69;;;-0.09;94.81
66547;BME280;53400;50.364;14.874;2024-03-08T06:08:27;99009.41;;;-0.12;94.62
66547;BME280;53400;50.364;14.874;2024-03-08T06:10:56;99015.44;;;-0.03;96.06
66547;BME280;53400;50.364;14.874;2024-03-08T06:13:22;99011.50;;;0.09;94.26
66547;BME280;53400;50.364;14.874;2024-03-08T06:15:48;99012.31;;;0.02;95.27
66547;BME280;53400;50.364;14.874;2024-03-08T06:18:16;99011.94;;;0.29;98.27
66547;BME280;53400;50.364;14.874;2024-03-08T06:20:43;99011.53;;;0.49;97.65
66547;BME280;53400;50.364;14.874;2024-03-08T06:23:09;99013.53;;;0.47;95.56
66547;BME280;53400;50.364;14.874;2024-03-08T06:25:35;99013.69;;;0.45;95.15
66547;BME280;53400;50.364;14.874;2024-03-08T06:28:01;99014.72;;;0.75;95.75
66547;BME280;53400;50.364;14.874;2024-03-08T06:30:26;99014.22;;;1.03;94.72
66547;BME280;53400;50.364;14.874;2024-03-08T06:32:52;99002.81;;;1.33;95.91
66547;BME280;53400;50.364;14.874;2024-03-08T06:35:19;99001.66;;;1.59;93.94
66547;BME280;53400;50.364;14.874;2024-03-08T06:37:47;99010.34;;;1.82;92.68
66547;BME280;53400;50.364;14.874;2024-03-08T06:40:13;99003.91;;;2.00;91.73
66547;BME280;53400;50.364;14.874;2024-03-08T06:42:39;99005.22;;;2.04;90.39
66547;BME280;53400;50.364;14.874;2024-03-08T06:45:06;99005.69;;;2.22;90.49
66547;BME280;53400;50.364;14.874;2024-03-08T06:47:34;99006.13;;;2.41;89.94
66547;BME280;53400;50.364;14.874;2024-03-08T06:50:00;99009.22;;;2.15;90.03
66547;BME280;53400;50.364;14.874;2024-03-08T06:52:26;99001.28;;;2.59;89.17
66547;BME280;53400;50.364;14.874;2024-03-08T06:54:53;99000.31;;;2.82;89.32
66547;BME280;53400;50.364;14.874;2024-03-08T06:57:20;98996.59;;;2.76;87.72
66547;BME280;53400;50.364;14.874;2024-03-08T06:59:50;98996.28;;;2.86;87.08
66547;BME280;53400;50.364;14.874;2024-03-08T07:02:18;98999.91;;;3.36;87.41
66547;BME280;53400;50.364;14.874;2024-03-08T07:04:44;98993.94;;;3.55;85.93
66547;BME280;53400;50.364;14.874;2024-03-08T07:07:10;98995.63;;;3.84;84.94
66547;BME280;53400;50.364;14.874;2024-03-08T07:09:36;98997.59;;;3.76;83.33
66547;BME280;53400;50.364;14.874;2024-03-08T07:12:04;98993.91;;;3.77;83.15
66547;BME280;53400;50.364;14.874;2024-03-08T07:14:30;98989.81;;;3.74;84.12
66547;BME280;53400;50.364;14.874;2024-03-08T07:16:58;98985.25;;;3.61;83.58
66547;BME280;53400;50.364;14.874;2024-03-08T07:19:23;98991.81;;;3.94;83.00
66547;BME280;53400;50.364;14.874;2024-03-08T07:21:49;98996.28;;;4.21;82.23
66547;BME280;53400;50.364;14.874;2024-03-08T07:24:15;98987.53;;;3.93;82.50
66547;BME280;53400;50.364;14.874;2024-03-08T07:26:44;98992.81;;;3.21;82.12
66547;BME280;53400;50.364;14.874;2024-03-08T07:29:16;98994.78;;;3.34;84.34
66547;BME280;53400;50.364;14.874;2024-03-08T07:31:42;98988.53;;;2.99;83.23
66547;BME280;53400;50.364;14.874;2024-03-08T07:34:07;98986.72;;;3.21;84.04
66547;BME280;53400;50.364;14.874;2024-03-08T07:36:37;98994.00;;;3.40;83.03
66547;BME280;53400;50.364;14.874;2024-03-08T07:39:02;98984.50;;;3.25;83.52
66547;BME280;53400;50.364;14.874;2024-03-08T07:41:31;98987.50;;;2.64;86.43
66547;BME280;53400;50.364;14.874;2024-03-08T07:43:57;98980.13;;;2.59;87.09
66547;BME280;53400;50.364;14.874;2024-03-08T07:46:24;98981.31;;;2.57;87.75
66547;BME280;53400;50.364;14.874;2024-03-08T07:48:50;98970.03;;;2.48;88.97
66547;BME280;53400;50.364;14.874;2024-03-08T07:51:17;98971.22;;;2.82;88.25
66547;BME280;53400;50.364;14.874;2024-03-08T07:53:43;98965.91;;;3.18;87.93
66547;BME280;53400;50.364;14.874;2024-03-08T07:56:10;98967.09;;;3.37;87.12
66547;BME280;53400;50.364;14.874;2024-03-08T07:58:38;98971.78;;;3.35;85.90
66547;BME280;53400;50.364;14.874;2024-03-08T08:01:06;98962.59;;;3.59;85.87
66547;BME280;53400;50.364;14.874;2024-03-08T08:03:33;98967.63;;;3.47;85.54
66547;BME280;53400;50.364;14.874;2024-03-08T08:05:59;98966.94;;;3.38;84.70
66547;BME280;53400;50.364;14.874;2024-03-08T08:08:25;98960.84;;;3.66;84.30
66547;BME280;53400;50.364;14.874;2024-03-08T08:10:52;98949.69;;;3.49;83.85
66547;BME280;53400;50.364;14.874;2024-03-08T08:13:18;98955.00;;;3.28;84.55
66547;BME280;53400;50.364;14.874;2024-03-08T08:15:44;98954.34;;;3.68;82.22
66547;BME280;53400;50.364;14.874;2024-03-08T08:18:09;98957.09;;;3.82;81.66
66547;BME280;53400;50.364;14.874;2024-03-08T08:20:37;98963.53;;;3.44;81.45
66547;BME280;53400;50.364;14.874;2024-03-08T08:23:03;98958.84;;;3.47;83.13
66547;BME280;53400;50.364;14.874;2024-03-08T08:25:29;98964.94;;;3.68;83.84
66547;BME280;53400;50.364;14.874;2024-03-08T08:27:55;98967.38;;;3.42;83.83
66547;BME280;53400;50.364;14.874;2024-03-08T08:30:21;98964.56;;;3.72;82.11
66547;BME280;53400;50.364;14.874;2024-03-08T08:32:47;98966.75;;;4.31;80.21
66547;BME280;53400;50.364;14.874;2024-03-08T08:35:14;98960.16;;;3.57;81.81
66547;BME280;53400;50.364;14.874;2024-03-08T08:37:42;98967.25;;;3.50;81.45
66547;BME280;53400;50.364;14.874;2024-03-08T08:40:08;98960.84;;;3.66;83.75
66547;BME280;53400;50.364;14.874;2024-03-08T08:42:35;98959.34;;;4.20;81.10
66547;BME280;53400;50.364;14.874;2024-03-08T08:45:02;98958.66;;;4.04;82.30
66547;BME280;53400;50.364;14.874;2024-03-08T08:47:28;98961.84;;;3.93;82.07
66547;BME280;53400;50.364;14.874;2024-03-08T08:49:54;98963.09;;;3.97;81.01
66547;BME280;53400;50.364;14.874;2024-03-08T08:52:20;98961.53;;;4.09;80.78
66547;BME280;53400;50.364;14.874;2024-03-08T08:54:47;98951.09;;;4.01;80.45
66547;BME280;53400;50.364;14.874;2024-03-08T08:57:15;98962.31;;;4.38;79.75
66547;BME280;53400;50.364;14.874;2024-03-08T08:59:41;98955.28;;;4.17;82.68
66547;BME280;53400;50.364;14.874;2024-03-08T09:02:07;98962.13;;;4.40;80.24
66547;BME280;53400;50.364;14.874;2024-03-08T09:04:34;98947.94;;;4.67;79.16
66547;BME280;53400;50.364;14.874;2024-03-08T09:07:01;98942.81;;;4.59;77.93
66547;BME280;53400;50.364;14.874;2024-03-08T09:09:27;98946.63;;;4.98;77.98
66547;BME280;53400;50.364;14.874;2024-03-08T09:11:54;98938.66;;;5.04;76.74
66547;BME280;53400;50.364;14.874;2024-03-08T09:14:20;98937.78;;;4.77;77.30
66547;BME280;53400;50.364;14.874;2024-03-08T09:16:46;98934.56;;;4.95;77.27
66547;BME280;53400;50.364;14.874;2024-03-08T09:19:13;98940.56;;;4.56;78.39
66547;BME280;53400;50.364;14.874;2024-03-08T09:21:39;98937.03;;;5.03;76.63
66547;BME280;53400;50.364;14.874;2024-03-08T09:24:06;98936.00;;;4.98;76.09
66547;BME280;53400;50.364;14.874;2024-03-08T09:26:32;98926.88;;;5.27;75.79
66547;BME280;53400;50.364;14.874;2024-03-08T09:29:00;98926.44;;;5.77;75.89
66547;BME280;53400;50.364;14.874;2024-03-08T09:31:26;98928.06;;;5.71;75.41
66547;BME280;53400;50.364;14.874;2024-03-08T09:33:52;98917.44;;;5.44;76.57
66547;BME280;53400;50.364;14.874;2024-03-08T09:36:18;98913.19;;;5.37;75.85
66547;BME280;53400;50.364;14.874;2024-03-08T09:38:43;98921.94;;;5.90;74.97
66547;BME280;53400;50.364;14.874;2024-03-08T09:41:10;98918.69;;;5.82;74.86
66547;BME280;53400;50.364;14.874;2024-03-08T09:43:36;98914.78;;;5.78;74.24
66547;BME280;53400;50.364;14.874;2024-03-08T09:46:06;98906.44;;;5.34;75.58
66547;BME280;53400;50.364;14.874;2024-03-08T09:48:33;98915.84;;;5.37;75.93
66547;BME280;53400;50.364;14.874;2024-03-08T09:51:00;98908.00;;;4.95;76.35
66547;BME280;53400;50.364;14.874;2024-03-08T09:53:26;98909.44;;;4.91;76.79
66547;BME280;53400;50.364;14.874;2024-03-08T09:55:52;98910.31;;;5.25;76.61
66547;BME280;53400;50.364;14.874;2024-03-08T09:58:18;98908.66;;;5.50;75.78
66547;BME280;53400;50.364;14.874;2024-03-08T10:00:58;98897.25;;;5.30;76.58
66547;BME280;53400;50.364;14.874;2024-03-08T10:03:29;98901.72;;;5.49;74.59
66547;BME280;53400;50.364;14.874;2024-03-08T10:05:56;98897.78;;;5.92;72.95
66547;BME280;53400;50.364;14.874;2024-03-08T10:08:26;98889.25;;;5.77;71.74
66547;BME280;53400;50.364;14.874;2024-03-08T10:10:52;98890.69;;;5.52;72.79
66547;BME280;53400;50.364;14.874;2024-03-08T10:13:18;98893.91;;;6.01;72.37
66547;BME280;53400;50.364;14.874;2024-03-08T10:15:45;98886.34;;;5.91;72.89
66547;BME280;53400;50.364;14.874;2024-03-08T10:18:11;98894.31;;;6.05;72.12
66547;BME280;53400;50.364;14.874;2024-03-08T10:20:38;98882.88;;;5.91;71.84
66547;BME280;53400;50.364;14.874;2024-03-08T10:23:04;98888.81;;;5.93;72.29
66547;BME280;53400;50.364;14.874;2024-03-08T10:25:30;98885.50;;;6.11;73.45
66547;BME280;53400;50.364;14.874;2024-03-08T10:27:57;98884.34;;;6.45;71.84
66547;BME280;53400;50.364;14.874;2024-03-08T10:30:23;98878.34;;;6.18;72.13
66547;BME280;53400;50.364;14.874;2024-03-08T10:32:49;98881.69;;;6.45;73.86
66547;BME280;53400;50.364;14.874;2024-03-08T10:35:15;98882.31;;;6.40;71.82
66547;BME280;53400;50.364;14.874;2024-03-08T10:37:45;98881.00;;;6.18;72.88
66547;BME280;53400;50.364;14.874;2024-03-08T10:40:16;98880.56;;;6.21;73.20
66547;BME280;53400;50.364;14.874;2024-03-08T10:42:51;98886.44;;;6.30;73.56
66547;BME280;53400;50.364;14.874;2024-03-08T10:45:26;98881.78;;;6.25;73.60
66547;BME280;53400;50.364;14.874;2024-03-08T10:48:04;98884.34;;;6.45;74.57
66547;BME280;53400;50.364;14.874;2024-03-08T10:50:36;98879.53;;;6.22;73.06
66547;BME280;53400;50.364;14.874;2024-03-08T10:53:06;98876.69;;;6.17;72.95
66547;BME280;53400;50.364;14.874;2024-03-08T10:55:33;98867.75;;;5.85;73.14
66547;BME280;53400;50.364;14.874;2024-03-08T10:57:59;98866.50;;;6.52;73.94
66547;BME280;53400;50.364;14.874;2024-03-08T11:00:26;98866.72;;;6.51;72.85
66547;BME280;53400;50.364;14.874;2024-03-08T11:02:53;98861.91;;;6.73;73.36
66547;BME280;53400;50.364;14.874;2024-03-08T11:05:32;98859.63;;;6.76;72.94
66547;BME280;53400;50.364;14.874;2024-03-08T11:08:01;98857.16;;;6.75;72.39
66547;BME280;53400;50.364;14.874;2024-03-08T11:10:28;98850.44;;;7.04;71.99
66547;BME280;53400;50.364;14.874;2024-03-08T11:12:54;98849.94;;;7.39;71.90
66547;BME280;53400;50.364;14.874;2024-03-08T11:15:20;98844.19;;;7.60;71.74
66547;BME280;53400;50.364;14.874;2024-03-08T11:17:48;98835.31;;;6.98;72.26
66547;BME280;53400;50.364;14.874;2024-03-08T11:20:15;98840.66;;;7.23;72.67
66547;BME280;53400;50.364;14.874;2024-03-08T11:22:48;98837.38;;;6.96;71.23
66547;BME280;53400;50.364;14.874;2024-03-08T11:25:37;98835.97;;;7.18;72.78
66547;BME280;53400;50.364;14.874;2024-03-08T11:28:11;98830.53;;;7.06;72.29
66547;BME280;53400;50.364;14.874;2024-03-08T11:30:43;98823.50;;;6.87;73.42
66547;BME280;53400;50.364;14.874;2024-03-08T11:33:12;98819.41;;;6.91;73.75
66547;BME280;53400;50.364;14.874;2024-03-08T11:35:39;98818.19;;;7.12;72.94
66547;BME280;53400;50.364;14.874;2024-03-08T11:38:08;98820.91;;;7.30;72.17
66547;BME280;53400;50.364;14.874;2024-03-08T11:40:35;98808.84;;;7.28;71.54
66547;BME280;53400;50.364;14.874;2024-03-08T11:43:01;98812.16;;;7.23;72.30
66547;BME280;53400;50.364;14.874;2024-03-08T11:45:29;98804.66;;;7.57;71.77
66547;BME280;53400;50.364;14.874;2024-03-08T11:47:56;98803.31;;;7.48;71.63
66547;BME280;53400;50.364;14.874;2024-03-08T11:50:22;98804.34;;;7.28;71.07
66547;BME280;53400;50.364;14.874;2024-03-08T11:52:50;98798.50;;;7.38;72.14
66547;BME280;53400;50.364;14.874;2024-03-08T11:55:16;98789.84;;;7.43;72.17
66547;BME280;53400;50.364;14.874;2024-03-08T11:57:46;98790.13;;;7.34;72.25
66547;BME280;53400;50.364;14.874;2024-03-08T12:00:16;98785.00;;;7.33;73.26
66547;BME280;53400;50.364;14.874;2024-03-08T12:03:01;98789.19;;;7.47;72.35
66547;BME280;53400;50.364;14.874;2024-03-08T12:05:27;98788.22;;;7.60;73.75
66547;BME280;53400;50.364;14.874;2024-03-08T12:07:56;98780.31;;;7.72;73.11
66547;BME280;53400;50.364;14.874;2024-03-08T12:10:27;98778.59;;;7.96;71.53
66547;BME280;53400;50.364;14.874;2024-03-08T12:12:58;98775.72;;;7.97;72.38
66547;BME280;53400;50.364;14.874;2024-03-08T12:15:29;98767.69;;;7.42;72.54
66547;BME280;53400;50.364;14.874;2024-03-08T12:18:11;98779.69;;;7.51;73.32
66547;BME280;53400;50.364;14.874;2024-03-08T12:20:38;98766.81;;;7.67;74.11
66547;BME280;53400;50.364;14.874;2024-03-08T12:23:05;98772.53;;;7.89;72.74
66547;BME280;53400;50.364;14.874;2024-03-08T12:25:32;98777.34;;;7.98;70.95
66547;BME280;53400;50.364;14.874;2024-03-08T12:28:09;98771.03;;;7.93;75.00
66547;BME280;53400;50.364;14.874;2024-03-08T12:30:45;98760.38;;;7.93;73.08
66547;BME280;53400;50.364;14.874;2024-03-08T12:33:11;98760.41;;;7.56;73.39
66547;BME280;53400;50.364;14.874;2024-03-08T12:35:38;98767.50;;;7.80;75.32
66547;BME280;53400;50.364;14.874;2024-03-08T12:38:04;98753.97;;;8.12;75.41
66547;BME280;53400;50.364;14.874;2024-03-08T12:40:32;98745.34;;;8.28;70.73
66547;BME280;53400;50.364;14.874;2024-03-08T12:43:01;98755.94;;;7.87;72.96
66547;BME280;53400;50.364;14.874;2024-03-08T12:45:29;98754.47;;;7.72;73.11
66547;BME280;53400;50.364;14.874;2024-03-08T12:47:56;98760.38;;;7.93;73.13
66547;BME280;53400;50.364;14.874;2024-03-08T12:50:23;98753.19;;;7.93;73.62
66547;BME280;53400;50.364;14.874;2024-03-08T12:52:51;98756.56;;;7.70;73.17
66547;BME280;53400;50.364;14.874;2024-03-08T12:55:18;98741.53;;;8.06;73.92